Boden, Illinois
Current Conditions -  °F | °C
As of 6:52 PM on Tuesday 25 Nov 2014 (Local Time) from KMLI Reporting Station
Clear Clear  
Wind Chill: -13°   Ceiling: Unl
Heat Index: -8°   Visibility: 10mi
Dew Point: -10°   Wind: 6mph
Humidity: 88%   Direction: 150°SSE
Pressure: 30.15"   Gusts: NA
Location:  41.2864°N, 90.4945°W
Report Text: KMLI 260052Z 15005KT 10SM CLR M08/M10 A3015 RMK AO2 SLP218 T10831100 $
Loading
Personal Weather Stations






























Interactive Weather Map New forecast layout! Learn more

10-Day Weather Forecast

Advertisements
Track Severe Weather on mobile